Airport Name : Myrtle Beach Intl

Other Name : Myrtle Beach

ICAO : KMYR

IATA : MYR

FAA : MYR

Latitude : 33.67975

Longitude : -78.928333

Country : United States

Local Date and Time : 22 May 2024 17:30

 

TAF (Terminal Aerodrome Forecast)

KMYR 221724Z 2218/2318 16008KT P6SM FEW250 FM230800 00000KT 5SM BR SCT120 FM231400 21005KT P6SM FEW200

 

METAR (METeorological Aerodrome Report)

KMYR 222056Z 15009KT 10SM CLR 26/19 A3001 RMK AO2 SLP163 T02560194 58020

KMYR 221956Z 16012KT 10SM CLR 26/17 A3003 RMK AO2 SLP170 T02610172

KMYR 221856Z 14010KT 10SM CLR 26/17 A3006 RMK AO2 SLP178 T02560172

KMYR 221756Z 15009KT 10SM CLR 26/17 A3007 RMK AO2 SLP183 T02560167 10261 20200 57005